sensor_id;sensor_type;location;lat;lon;timestamp;P1;durP1;ratioP1;P2;durP2;ratioP2
23470;SDS011;11908;50.806;4.424;2024-01-10T00:01:34;13.18;;;7.25;;
23470;SDS011;11908;50.806;4.424;2024-01-10T00:04:00;14.85;;;7.28;;
23470;SDS011;11908;50.806;4.424;2024-01-10T00:06:26;10.63;;;7.30;;
23470;SDS011;11908;50.806;4.424;2024-01-10T00:08:52;11.02;;;6.88;;
23470;SDS011;11908;50.806;4.424;2024-01-10T00:11:18;13.98;;;7.80;;
23470;SDS011;11908;50.806;4.424;2024-01-10T00:13:44;12.95;;;7.68;;
23470;SDS011;11908;50.806;4.424;2024-01-10T00:16:12;11.38;;;6.63;;
23470;SDS011;11908;50.806;4.424;2024-01-10T00:18:40;14.13;;;7.32;;
23470;SDS011;11908;50.806;4.424;2024-01-10T00:21:07;15.57;;;7.43;;
23470;SDS011;11908;50.806;4.424;2024-01-10T00:23:32;13.75;;;8.07;;
23470;SDS011;11908;50.806;4.424;2024-01-10T00:25:58;11.93;;;7.38;;
23470;SDS011;11908;50.806;4.424;2024-01-10T00:28:25;11.90;;;7.95;;
23470;SDS011;11908;50.806;4.424;2024-01-10T00:30:50;15.38;;;7.22;;
23470;SDS011;11908;50.806;4.424;2024-01-10T00:33:16;10.73;;;7.50;;
23470;SDS011;11908;50.806;4.424;2024-01-10T00:35:42;13.30;;;7.03;;
23470;SDS011;11908;50.806;4.424;2024-01-10T00:38:08;11.60;;;7.05;;
23470;SDS011;11908;50.806;4.424;2024-01-10T00:40:34;11.48;;;6.85;;
23470;SDS011;11908;50.806;4.424;2024-01-10T00:43:00;14.52;;;7.03;;
23470;SDS011;11908;50.806;4.424;2024-01-10T00:45:26;11.55;;;8.15;;
23470;SDS011;11908;50.806;4.424;2024-01-10T00:47:52;10.57;;;6.93;;
23470;SDS011;11908;50.806;4.424;2024-01-10T00:50:18;13.57;;;7.38;;
23470;SDS011;11908;50.806;4.424;2024-01-10T00:52:44;11.32;;;6.78;;
23470;SDS011;11908;50.806;4.424;2024-01-10T00:55:10;12.68;;;7.50;;
23470;SDS011;11908;50.806;4.424;2024-01-10T00:57:36;12.45;;;7.60;;
23470;SDS011;11908;50.806;4.424;2024-01-10T01:00:04;13.65;;;7.63;;
23470;SDS011;11908;50.806;4.424;2024-01-10T01:02:30;12.88;;;7.35;;
23470;SDS011;11908;50.806;4.424;2024-01-10T01:04:56;16.98;;;7.72;;
23470;SDS011;11908;50.806;4.424;2024-01-10T01:07:22;13.93;;;7.72;;
23470;SDS011;11908;50.806;4.424;2024-01-10T01:09:47;13.25;;;7.57;;
23470;SDS011;11908;50.806;4.424;2024-01-10T01:12:13;12.93;;;8.15;;
23470;SDS011;11908;50.806;4.424;2024-01-10T01:14:39;15.35;;;7.80;;
23470;SDS011;11908;50.806;4.424;2024-01-10T01:17:05;13.43;;;7.57;;
23470;SDS011;11908;50.806;4.424;2024-01-10T01:19:31;11.73;;;7.60;;
23470;SDS011;11908;50.806;4.424;2024-01-10T01:21:56;15.45;;;8.27;;
23470;SDS011;11908;50.806;4.424;2024-01-10T01:24:22;12.18;;;7.57;;
23470;SDS011;11908;50.806;4.424;2024-01-10T01:26:48;16.42;;;7.72;;
23470;SDS011;11908;50.806;4.424;2024-01-10T01:29:13;12.15;;;7.43;;
23470;SDS011;11908;50.806;4.424;2024-01-10T01:31:39;12.75;;;7.47;;
23470;SDS011;11908;50.806;4.424;2024-01-10T01:34:05;14.63;;;7.97;;
23470;SDS011;11908;50.806;4.424;2024-01-10T01:36:30;11.30;;;7.78;;
23470;SDS011;11908;50.806;4.424;2024-01-10T01:38:56;13.18;;;7.85;;
23470;SDS011;11908;50.806;4.424;2024-01-10T01:41:22;18.98;;;8.52;;
23470;SDS011;11908;50.806;4.424;2024-01-10T01:43:47;15.40;;;8.30;;
23470;SDS011;11908;50.806;4.424;2024-01-10T01:46:13;14.60;;;7.70;;
23470;SDS011;11908;50.806;4.424;2024-01-10T01:48:39;18.52;;;9.05;;
23470;SDS011;11908;50.806;4.424;2024-01-10T01:51:14;17.38;;;8.85;;
23470;SDS011;11908;50.806;4.424;2024-01-10T01:53:40;12.50;;;7.30;;
23470;SDS011;11908;50.806;4.424;2024-01-10T01:56:08;15.60;;;8.52;;
23470;SDS011;11908;50.806;4.424;2024-01-10T01:58:36;16.30;;;8.20;;
23470;SDS011;11908;50.806;4.424;2024-01-10T02:01:03;19.40;;;8.80;;
23470;SDS011;11908;50.806;4.424;2024-01-10T02:03:33;16.10;;;8.32;;
23470;SDS011;11908;50.806;4.424;2024-01-10T02:05:59;14.32;;;8.02;;
23470;SDS011;11908;50.806;4.424;2024-01-10T02:08:28;12.82;;;7.90;;
23470;SDS011;11908;50.806;4.424;2024-01-10T02:11:00;9.00;;;5.82;;
23470;SDS011;11908;50.806;4.424;2024-01-10T02:13:27;11.98;;;7.80;;
23470;SDS011;11908;50.806;4.424;2024-01-10T02:15:54;13.52;;;7.85;;
23470;SDS011;11908;50.806;4.424;2024-01-10T02:18:20;14.30;;;8.32;;
23470;SDS011;11908;50.806;4.424;2024-01-10T02:20:46;15.68;;;8.65;;
23470;SDS011;11908;50.806;4.424;2024-01-10T02:23:14;13.27;;;7.35;;
23470;SDS011;11908;50.806;4.424;2024-01-10T02:25:40;14.77;;;7.85;;
23470;SDS011;11908;50.806;4.424;2024-01-10T02:28:07;13.82;;;7.88;;
23470;SDS011;11908;50.806;4.424;2024-01-10T02:30:34;19.13;;;8.10;;
23470;SDS011;11908;50.806;4.424;2024-01-10T02:33:00;15.80;;;8.80;;
23470;SDS011;11908;50.806;4.424;2024-01-10T02:35:26;16.17;;;8.15;;
23470;SDS011;11908;50.806;4.424;2024-01-10T02:37:52;12.57;;;8.23;;
23470;SDS011;11908;50.806;4.424;2024-01-10T02:40:19;16.52;;;8.13;;
23470;SDS011;11908;50.806;4.424;2024-01-10T02:42:48;14.32;;;8.35;;
23470;SDS011;11908;50.806;4.424;2024-01-10T02:45:13;14.05;;;8.07;;
23470;SDS011;11908;50.806;4.424;2024-01-10T02:47:39;15.43;;;7.80;;
23470;SDS011;11908;50.806;4.424;2024-01-10T02:50:05;15.30;;;8.70;;
23470;SDS011;11908;50.806;4.424;2024-01-10T02:52:31;14.18;;;8.85;;
23470;SDS011;11908;50.806;4.424;2024-01-10T02:54:57;13.80;;;8.25;;
23470;SDS011;11908;50.806;4.424;2024-01-10T02:57:23;16.85;;;9.10;;
23470;SDS011;11908;50.806;4.424;2024-01-10T02:59:49;15.23;;;8.98;;
23470;SDS011;11908;50.806;4.424;2024-01-10T03:02:14;14.43;;;8.18;;
23470;SDS011;11908;50.806;4.424;2024-01-10T03:04:41;17.02;;;7.72;;
23470;SDS011;11908;50.806;4.424;2024-01-10T03:07:06;15.68;;;8.25;;
23470;SDS011;11908;50.806;4.424;2024-01-10T03:09:32;13.38;;;8.50;;
23470;SDS011;11908;50.806;4.424;2024-01-10T03:11:58;11.65;;;7.95;;
23470;SDS011;11908;50.806;4.424;2024-01-10T03:14:24;14.60;;;8.70;;
23470;SDS011;11908;50.806;4.424;2024-01-10T03:16:50;14.23;;;8.15;;
23470;SDS011;11908;50.806;4.424;2024-01-10T03:19:15;14.60;;;8.68;;
23470;SDS011;11908;50.806;4.424;2024-01-10T03:21:41;15.65;;;8.60;;
23470;SDS011;11908;50.806;4.424;2024-01-10T03:24:07;16.75;;;9.40;;
23470;SDS011;11908;50.806;4.424;2024-01-10T03:26:33;14.27;;;9.52;;
23470;SDS011;11908;50.806;4.424;2024-01-10T03:28:59;14.43;;;8.27;;
23470;SDS011;11908;50.806;4.424;2024-01-10T03:31:26;15.43;;;8.32;;
23470;SDS011;11908;50.806;4.424;2024-01-10T03:33:53;17.50;;;9.85;;
23470;SDS011;11908;50.806;4.424;2024-01-10T03:36:19;17.55;;;9.20;;
23470;SDS011;11908;50.806;4.424;2024-01-10T03:38:44;16.25;;;8.90;;
23470;SDS011;11908;50.806;4.424;2024-01-10T03:41:13;19.08;;;8.77;;
23470;SDS011;11908;50.806;4.424;2024-01-10T03:43:43;17.15;;;9.50;;
23470;SDS011;11908;50.806;4.424;2024-01-10T03:46:09;14.63;;;8.82;;
23470;SDS011;11908;50.806;4.424;2024-01-10T03:48:35;17.08;;;8.95;;
23470;SDS011;11908;50.806;4.424;2024-01-10T03:51:02;16.92;;;8.88;;
23470;SDS011;11908;50.806;4.424;2024-01-10T03:53:28;16.00;;;8.75;;
23470;SDS011;11908;50.806;4.424;2024-01-10T03:55:54;14.25;;;8.88;;
23470;SDS011;11908;50.806;4.424;2024-01-10T03:58:20;14.30;;;9.18;;
23470;SDS011;11908;50.806;4.424;2024-01-10T04:00:45;17.50;;;8.68;;
23470;SDS011;11908;50.806;4.424;2024-01-10T04:03:11;17.05;;;9.40;;
23470;SDS011;11908;50.806;4.424;2024-01-10T04:05:37;15.90;;;9.15;;
23470;SDS011;11908;50.806;4.424;2024-01-10T04:08:03;15.50;;;9.43;;
23470;SDS011;11908;50.806;4.424;2024-01-10T04:10:29;19.10;;;9.63;;
23470;SDS011;11908;50.806;4.424;2024-01-10T04:12:54;23.38;;;9.55;;
23470;SDS011;11908;50.806;4.424;2024-01-10T04:15:20;15.38;;;8.60;;
23470;SDS011;11908;50.806;4.424;2024-01-10T04:17:46;15.80;;;9.07;;
23470;SDS011;11908;50.806;4.424;2024-01-10T04:20:12;21.08;;;9.27;;
23470;SDS011;11908;50.806;4.424;2024-01-10T04:22:38;16.42;;;8.85;;
23470;SDS011;11908;50.806;4.424;2024-01-10T04:25:05;18.35;;;10.88;;
23470;SDS011;11908;50.806;4.424;2024-01-10T04:27:31;15.52;;;9.00;;
23470;SDS011;11908;50.806;4.424;2024-01-10T04:29:57;17.10;;;8.88;;
23470;SDS011;11908;50.806;4.424;2024-01-10T04:32:23;15.93;;;9.23;;
23470;SDS011;11908;50.806;4.424;2024-01-10T04:34:48;14.80;;;9.60;;
23470;SDS011;11908;50.806;4.424;2024-01-10T04:37:15;18.38;;;9.48;;
23470;SDS011;11908;50.806;4.424;2024-01-10T04:39:40;20.52;;;9.35;;
23470;SDS011;11908;50.806;4.424;2024-01-10T04:42:08;17.20;;;9.88;;
23470;SDS011;11908;50.806;4.424;2024-01-10T04:44:35;16.25;;;9.43;;
23470;SDS011;11908;50.806;4.424;2024-01-10T04:47:01;17.23;;;9.07;;
23470;SDS011;11908;50.806;4.424;2024-01-10T04:49:27;14.80;;;9.50;;
23470;SDS011;11908;50.806;4.424;2024-01-10T04:51:52;16.75;;;8.65;;
23470;SDS011;11908;50.806;4.424;2024-01-10T04:54:18;13.88;;;8.45;;
23470;SDS011;11908;50.806;4.424;2024-01-10T04:56:44;14.15;;;8.48;;
23470;SDS011;11908;50.806;4.424;2024-01-10T04:59:10;17.05;;;8.85;;
23470;SDS011;11908;50.806;4.424;2024-01-10T05:01:35;15.00;;;8.75;;
23470;SDS011;11908;50.806;4.424;2024-01-10T05:04:02;17.98;;;9.93;;
23470;SDS011;11908;50.806;4.424;2024-01-10T05:06:28;17.25;;;9.13;;
23470;SDS011;11908;50.806;4.424;2024-01-10T05:08:53;21.17;;;9.02;;
23470;SDS011;11908;50.806;4.424;2024-01-10T05:11:23;16.45;;;9.07;;
23470;SDS011;11908;50.806;4.424;2024-01-10T05:13:49;17.20;;;9.70;;
23470;SDS011;11908;50.806;4.424;2024-01-10T05:16:15;16.80;;;9.65;;
23470;SDS011;11908;50.806;4.424;2024-01-10T05:18:42;16.15;;;9.15;;
23470;SDS011;11908;50.806;4.424;2024-01-10T05:21:08;18.33;;;8.75;;
23470;SDS011;11908;50.806;4.424;2024-01-10T05:23:33;18.92;;;9.02;;
23470;SDS011;11908;50.806;4.424;2024-01-10T05:25:59;15.98;;;9.77;;
23470;SDS011;11908;50.806;4.424;2024-01-10T05:28:25;16.75;;;8.68;;
23470;SDS011;11908;50.806;4.424;2024-01-10T05:30:50;15.43;;;8.73;;
23470;SDS011;11908;50.806;4.424;2024-01-10T05:33:16;17.65;;;8.57;;
23470;SDS011;11908;50.806;4.424;2024-01-10T05:35:42;12.63;;;7.82;;
23470;SDS011;11908;50.806;4.424;2024-01-10T05:38:07;20.90;;;9.57;;
23470;SDS011;11908;50.806;4.424;2024-01-10T05:40:33;16.65;;;9.40;;
23470;SDS011;11908;50.806;4.424;2024-01-10T05:42:59;16.13;;;8.43;;
23470;SDS011;11908;50.806;4.424;2024-01-10T05:45:25;18.70;;;8.63;;
23470;SDS011;11908;50.806;4.424;2024-01-10T05:47:51;17.50;;;9.10;;
23470;SDS011;11908;50.806;4.424;2024-01-10T05:50:17;17.58;;;8.95;;
23470;SDS011;11908;50.806;4.424;2024-01-10T05:52:45;19.55;;;9.18;;
23470;SDS011;11908;50.806;4.424;2024-01-10T05:55:11;13.70;;;7.93;;
23470;SDS011;11908;50.806;4.424;2024-01-10T05:57:37;17.05;;;9.52;;
23470;SDS011;11908;50.806;4.424;2024-01-10T06:00:03;16.00;;;8.75;;
23470;SDS011;11908;50.806;4.424;2024-01-10T06:02:34;15.35;;;9.02;;
23470;SDS011;11908;50.806;4.424;2024-01-10T06:05:10;14.57;;;8.45;;
23470;SDS011;11908;50.806;4.424;2024-01-10T06:07:36;14.70;;;9.45;;
23470;SDS011;11908;50.806;4.424;2024-01-10T06:10:02;15.38;;;9.43;;
23470;SDS011;11908;50.806;4.424;2024-01-10T06:12:28;14.75;;;9.00;;
23470;SDS011;11908;50.806;4.424;2024-01-10T06:14:54;14.95;;;8.95;;
23470;SDS011;11908;50.806;4.424;2024-01-10T06:17:20;16.08;;;8.70;;
23470;SDS011;11908;50.806;4.424;2024-01-10T06:19:46;13.63;;;9.00;;
23470;SDS011;11908;50.806;4.424;2024-01-10T06:22:12;14.98;;;8.75;;
23470;SDS011;11908;50.806;4.424;2024-01-10T06:24:38;15.57;;;9.23;;
23470;SDS011;11908;50.806;4.424;2024-01-10T06:27:04;15.98;;;9.40;;
23470;SDS011;11908;50.806;4.424;2024-01-10T06:29:33;15.38;;;8.77;;
23470;SDS011;11908;50.806;4.424;2024-01-10T06:32:02;19.00;;;8.95;;
23470;SDS011;11908;50.806;4.424;2024-01-10T06:34:34;18.13;;;9.07;;
23470;SDS011;11908;50.806;4.424;2024-01-10T06:37:03;12.95;;;8.40;;
23470;SDS011;11908;50.806;4.424;2024-01-10T06:39:29;14.93;;;8.60;;
23470;SDS011;11908;50.806;4.424;2024-01-10T06:41:54;15.00;;;8.20;;
23470;SDS011;11908;50.806;4.424;2024-01-10T06:44:20;15.40;;;9.27;;
23470;SDS011;11908;50.806;4.424;2024-01-10T06:46:46;15.55;;;7.88;;
23470;SDS011;11908;50.806;4.424;2024-01-10T06:49:12;14.48;;;8.23;;
23470;SDS011;11908;50.806;4.424;2024-01-10T06:51:37;15.90;;;8.23;;
23470;SDS011;11908;50.806;4.424;2024-01-10T06:54:04;16.08;;;9.38;;
23470;SDS011;11908;50.806;4.424;2024-01-10T06:56:33;14.68;;;8.30;;
23470;SDS011;11908;50.806;4.424;2024-01-10T06:58:59;15.80;;;8.77;;
23470;SDS011;11908;50.806;4.424;2024-01-10T07:01:26;15.75;;;8.77;;
23470;SDS011;11908;50.806;4.424;2024-01-10T07:03:52;16.80;;;8.43;;
23470;SDS011;11908;50.806;4.424;2024-01-10T07:06:19;19.83;;;9.75;;
23470;SDS011;11908;50.806;4.424;2024-01-10T07:08:48;14.57;;;8.23;;
23470;SDS011;11908;50.806;4.424;2024-01-10T07:11:15;14.77;;;8.55;;
23470;SDS011;11908;50.806;4.424;2024-01-10T07:13:41;16.88;;;8.55;;
23470;SDS011;11908;50.806;4.424;2024-01-10T07:16:07;13.77;;;8.55;;
23470;SDS011;11908;50.806;4.424;2024-01-10T07:18:33;13.65;;;8.35;;
23470;SDS011;11908;50.806;4.424;2024-01-10T07:20:59;20.00;;;8.38;;
23470;SDS011;11908;50.806;4.424;2024-01-10T07:23:25;19.55;;;9.32;;
23470;SDS011;11908;50.806;4.424;2024-01-10T07:25:51;14.77;;;9.20;;
23470;SDS011;11908;50.806;4.424;2024-01-10T07:28:17;16.70;;;9.07;;
23470;SDS011;11908;50.806;4.424;2024-01-10T07:30:43;15.85;;;8.55;;
23470;SDS011;11908;50.806;4.424;2024-01-10T07:33:09;23.23;;;9.90;;
23470;SDS011;11908;50.806;4.424;2024-01-10T07:35:36;15.65;;;9.15;;
23470;SDS011;11908;50.806;4.424;2024-01-10T07:38:03;16.67;;;8.77;;
23470;SDS011;11908;50.806;4.424;2024-01-10T07:40:32;18.85;;;9.32;;
23470;SDS011;11908;50.806;4.424;2024-01-10T07:42:58;16.90;;;9.40;;
23470;SDS011;11908;50.806;4.424;2024-01-10T07:45:23;17.75;;;9.30;;
23470;SDS011;11908;50.806;4.424;2024-01-10T07:47:50;19.38;;;9.38;;
23470;SDS011;11908;50.806;4.424;2024-01-10T07:50:15;16.70;;;9.32;;
23470;SDS011;11908;50.806;4.424;2024-01-10T07:52:41;16.77;;;8.60;;
23470;SDS011;11908;50.806;4.424;2024-01-10T07:55:08;16.65;;;9.25;;
23470;SDS011;11908;50.806;4.424;2024-01-10T07:57:33;21.45;;;8.68;;
23470;SDS011;11908;50.806;4.424;2024-01-10T08:00:00;18.27;;;9.13;;
23470;SDS011;11908;50.806;4.424;2024-01-10T08:02:26;17.20;;;9.15;;
23470;SDS011;11908;50.806;4.424;2024-01-10T08:04:52;17.33;;;9.05;;
23470;SDS011;11908;50.806;4.424;2024-01-10T08:07:17;18.88;;;9.70;;
23470;SDS011;11908;50.806;4.424;2024-01-10T08:09:44;17.02;;;9.73;;
23470;SDS011;11908;50.806;4.424;2024-01-10T08:12:10;19.65;;;9.55;;
23470;SDS011;11908;50.806;4.424;2024-01-10T08:14:37;16.85;;;8.70;;
23470;SDS011;11908;50.806;4.424;2024-01-10T08:17:02;21.08;;;9.13;;
23470;SDS011;11908;50.806;4.424;2024-01-10T08:19:28;18.65;;;9.77;;
23470;SDS011;11908;50.806;4.424;2024-01-10T08:21:54;16.30;;;8.85;;
23470;SDS011;11908;50.806;4.424;2024-01-10T08:24:20;15.05;;;9.23;;
23470;SDS011;11908;50.806;4.424;2024-01-10T08:26:46;17.75;;;8.90;;
23470;SDS011;11908;50.806;4.424;2024-01-10T08:29:14;17.90;;;9.25;;
23470;SDS011;11908;50.806;4.424;2024-01-10T08:31:40;23.45;;;9.40;;
23470;SDS011;11908;50.806;4.424;2024-01-10T08:34:06;21.15;;;9.27;;
23470;SDS011;11908;50.806;4.424;2024-01-10T08:36:31;15.77;;;9.13;;
23470;SDS011;11908;50.806;4.424;2024-01-10T08:38:57;17.83;;;8.10;;
23470;SDS011;11908;50.806;4.424;2024-01-10T08:41:22;20.13;;;9.73;;
23470;SDS011;11908;50.806;4.424;2024-01-10T08:43:48;15.40;;;9.35;;
23470;SDS011;11908;50.806;4.424;2024-01-10T08:46:14;21.45;;;9.57;;
23470;SDS011;11908;50.806;4.424;2024-01-10T08:48:40;17.38;;;9.57;;
23470;SDS011;11908;50.806;4.424;2024-01-10T08:51:05;18.52;;;9.10;;
23470;SDS011;11908;50.806;4.424;2024-01-10T08:53:31;15.50;;;8.88;;
23470;SDS011;11908;50.806;4.424;2024-01-10T08:55:57;19.95;;;9.13;;
23470;SDS011;11908;50.806;4.424;2024-01-10T08:58:23;20.50;;;9.70;;
23470;SDS011;11908;50.806;4.424;2024-01-10T09:00:48;15.85;;;8.68;;
23470;SDS011;11908;50.806;4.424;2024-01-10T09:03:14;16.50;;;9.43;;
23470;SDS011;11908;50.806;4.424;2024-01-10T09:05:40;13.52;;;8.13;;
23470;SDS011;11908;50.806;4.424;2024-01-10T09:08:06;19.90;;;8.75;;
23470;SDS011;11908;50.806;4.424;2024-01-10T09:10:32;14.77;;;8.82;;
23470;SDS011;11908;50.806;4.424;2024-01-10T09:12:58;21.45;;;8.93;;
23470;SDS011;11908;50.806;4.424;2024-01-10T09:15:24;17.98;;;9.27;;
23470;SDS011;11908;50.806;4.424;2024-01-10T09:17:50;16.08;;;9.02;;
23470;SDS011;11908;50.806;4.424;2024-01-10T09:20:17;15.20;;;9.40;;
23470;SDS011;11908;50.806;4.424;2024-01-10T09:22:43;13.63;;;8.30;;
23470;SDS011;11908;50.806;4.424;2024-01-10T09:25:09;19.30;;;8.95;;
23470;SDS011;11908;50.806;4.424;2024-01-10T09:27:38;14.85;;;8.60;;
23470;SDS011;11908;50.806;4.424;2024-01-10T09:30:05;15.98;;;8.85;;
23470;SDS011;11908;50.806;4.424;2024-01-10T09:32:34;13.88;;;8.40;;
23470;SDS011;11908;50.806;4.424;2024-01-10T09:35:00;18.23;;;8.93;;
23470;SDS011;11908;50.806;4.424;2024-01-10T09:37:26;15.25;;;8.35;;
23470;SDS011;11908;50.806;4.424;2024-01-10T09:39:52;18.52;;;8.93;;
23470;SDS011;11908;50.806;4.424;2024-01-10T09:42:18;14.30;;;8.30;;
23470;SDS011;11908;50.806;4.424;2024-01-10T09:44:46;18.52;;;9.57;;
23470;SDS011;11908;50.806;4.424;2024-01-10T09:47:13;16.45;;;8.85;;
23470;SDS011;11908;50.806;4.424;2024-01-10T09:49:41;14.25;;;8.57;;
23470;SDS011;11908;50.806;4.424;2024-01-10T09:52:10;16.17;;;8.30;;
23470;SDS011;11908;50.806;4.424;2024-01-10T09:54:37;16.90;;;9.02;;
23470;SDS011;11908;50.806;4.424;2024-01-10T09:57:05;18.17;;;8.80;;
23470;SDS011;11908;50.806;4.424;2024-01-10T09:59:30;16.02;;;8.93;;
23470;SDS011;11908;50.806;4.424;2024-01-10T10:01:57;15.70;;;9.43;;
23470;SDS011;11908;50.806;4.424;2024-01-10T10:04:27;15.93;;;8.77;;
23470;SDS011;11908;50.806;4.424;2024-01-10T10:06:59;16.88;;;8.05;;
23470;SDS011;11908;50.806;4.424;2024-01-10T10:09:26;14.95;;;8.82;;
23470;SDS011;11908;50.806;4.424;2024-01-10T10:11:54;14.98;;;9.00;;
23470;SDS011;11908;50.806;4.424;2024-01-10T10:14:20;15.70;;;8.38;;
23470;SDS011;11908;50.806;4.424;2024-01-10T10:16:47;15.45;;;8.30;;
23470;SDS011;11908;50.806;4.424;2024-01-10T10:19:13;17.42;;;8.93;;
23470;SDS011;11908;50.806;4.424;2024-01-10T10:21:48;17.27;;;8.10;;
23470;SDS011;11908;50.806;4.424;2024-01-10T10:24:13;17.35;;;9.02;;
23470;SDS011;11908;50.806;4.424;2024-01-10T10:26:39;16.70;;;8.25;;
23470;SDS011;11908;50.806;4.424;2024-01-10T10:29:06;17.02;;;9.02;;
23470;SDS011;11908;50.806;4.424;2024-01-10T10:31:32;18.38;;;9.30;;
23470;SDS011;11908;50.806;4.424;2024-01-10T10:33:59;19.90;;;9.57;;
23470;SDS011;11908;50.806;4.424;2024-01-10T10:36:26;22.35;;;9.85;;
23470;SDS011;11908;50.806;4.424;2024-01-10T10:38:51;18.83;;;9.38;;
23470;SDS011;11908;50.806;4.424;2024-01-10T10:41:18;17.15;;;9.02;;
23470;SDS011;11908;50.806;4.424;2024-01-10T10:43:44;17.80;;;9.25;;
23470;SDS011;11908;50.806;4.424;2024-01-10T10:46:11;17.48;;;9.45;;
23470;SDS011;11908;50.806;4.424;2024-01-10T10:48:40;17.02;;;8.95;;
23470;SDS011;11908;50.806;4.424;2024-01-10T10:53:55;18.15;;;9.18;;
23470;SDS011;11908;50.806;4.424;2024-01-10T10:56:22;18.40;;;9.48;;
23470;SDS011;11908;50.806;4.424;2024-01-10T10:58:49;15.68;;;10.07;;
23470;SDS011;11908;50.806;4.424;2024-01-10T11:01:15;19.23;;;8.65;;
23470;SDS011;11908;50.806;4.424;2024-01-10T11:03:42;16.42;;;9.25;;
23470;SDS011;11908;50.806;4.424;2024-01-10T11:06:09;16.42;;;9.60;;
23470;SDS011;11908;50.806;4.424;2024-01-10T11:08:35;19.90;;;9.52;;
23470;SDS011;11908;50.806;4.424;2024-01-10T11:11:04;17.08;;;9.20;;
23470;SDS011;11908;50.806;4.424;2024-01-10T11:24:57;19.25;;;9.05;;
23470;SDS011;11908;50.806;4.424;2024-01-10T11:27:23;17.05;;;9.90;;
23470;SDS011;11908;50.806;4.424;2024-01-10T11:29:51;19.42;;;9.88;;
23470;SDS011;11908;50.806;4.424;2024-01-10T11:32:18;14.55;;;8.70;;
23470;SDS011;11908;50.806;4.424;2024-01-10T11:34:58;17.88;;;10.65;;
23470;SDS011;11908;50.806;4.424;2024-01-10T11:37:43;16.73;;;9.98;;
23470;SDS011;11908;50.806;4.424;2024-01-10T11:40:11;14.40;;;9.73;;
23470;SDS011;11908;50.806;4.424;2024-01-10T11:42:44;17.85;;;9.90;;
23470;SDS011;11908;50.806;4.424;2024-01-10T11:45:44;17.35;;;9.85;;
23470;SDS011;11908;50.806;4.424;2024-01-10T11:48:03;16.23;;;10.38;;
23470;SDS011;11908;50.806;4.424;2024-01-10T11:50:28;23.98;;;10.40;;
23470;SDS011;11908;50.806;4.424;2024-01-10T11:52:56;20.67;;;10.50;;
23470;SDS011;11908;50.806;4.424;2024-01-10T11:58:13;18.27;;;9.95;;
23470;SDS011;11908;50.806;4.424;2024-01-10T12:00:39;16.52;;;10.18;;
23470;SDS011;11908;50.806;4.424;2024-01-10T12:03:07;17.35;;;9.90;;
23470;SDS011;11908;50.806;4.424;2024-01-10T12:05:34;17.73;;;9.65;;
23470;SDS011;11908;50.806;4.424;2024-01-10T12:08:00;21.63;;;10.50;;
23470;SDS011;11908;50.806;4.424;2024-01-10T12:10:29;16.38;;;9.32;;
23470;SDS011;11908;50.806;4.424;2024-01-10T12:13:00;17.63;;;10.30;;
23470;SDS011;11908;50.806;4.424;2024-01-10T12:15:26;18.95;;;9.80;;
23470;SDS011;11908;50.806;4.424;2024-01-10T12:17:52;17.80;;;10.25;;
23470;SDS011;11908;50.806;4.424;2024-01-10T12:20:17;20.48;;;10.57;;
23470;SDS011;11908;50.806;4.424;2024-01-10T12:22:43;23.38;;;11.20;;
23470;SDS011;11908;50.806;4.424;2024-01-10T12:25:09;19.25;;;10.48;;
23470;SDS011;11908;50.806;4.424;2024-01-10T12:27:35;16.67;;;9.63;;
23470;SDS011;11908;50.806;4.424;2024-01-10T12:30:01;24.45;;;10.57;;
23470;SDS011;11908;50.806;4.424;2024-01-10T12:32:27;16.13;;;9.07;;
23470;SDS011;11908;50.806;4.424;2024-01-10T12:35:03;17.95;;;10.07;;
23470;SDS011;11908;50.806;4.424;2024-01-10T12:37:30;16.83;;;9.23;;
23470;SDS011;11908;50.806;4.424;2024-01-10T12:39:56;23.85;;;10.18;;
23470;SDS011;11908;50.806;4.424;2024-01-10T12:42:22;18.50;;;10.32;;
23470;SDS011;11908;50.806;4.424;2024-01-10T12:44:48;19.95;;;10.88;;
23470;SDS011;11908;50.806;4.424;2024-01-10T12:47:20;21.65;;;10.20;;
23470;SDS011;11908;50.806;4.424;2024-01-10T12:49:47;20.42;;;10.68;;
23470;SDS011;11908;50.806;4.424;2024-01-10T12:52:13;17.67;;;9.63;;
23470;SDS011;11908;50.806;4.424;2024-01-10T12:54:39;20.00;;;10.77;;
23470;SDS011;11908;50.806;4.424;2024-01-10T12:57:05;18.65;;;10.15;;
23470;SDS011;11908;50.806;4.424;2024-01-10T12:59:35;21.25;;;9.82;;
23470;SDS011;11908;50.806;4.424;2024-01-10T13:02:00;18.27;;;10.32;;
23470;SDS011;11908;50.806;4.424;2024-01-10T13:04:26;24.58;;;10.35;;
23470;SDS011;11908;50.806;4.424;2024-01-10T13:06:52;18.38;;;10.32;;
23470;SDS011;11908;50.806;4.424;2024-01-10T13:09:18;21.35;;;10.88;;
23470;SDS011;11908;50.806;4.424;2024-01-10T13:11:43;24.02;;;10.23;;
23470;SDS011;11908;50.806;4.424;2024-01-10T13:14:10;18.33;;;9.93;;
23470;SDS011;11908;50.806;4.424;2024-01-10T13:16:37;21.88;;;10.30;;
23470;SDS011;11908;50.806;4.424;2024-01-10T13:19:02;20.70;;;9.95;;
23470;SDS011;11908;50.806;4.424;2024-01-10T13:21:28;22.45;;;10.55;;
23470;SDS011;11908;50.806;4.424;2024-01-10T13:23:54;18.02;;;10.10;;
23470;SDS011;11908;50.806;4.424;2024-01-10T13:26:20;19.05;;;10.35;;
23470;SDS011;11908;50.806;4.424;2024-01-10T13:28:45;18.35;;;9.82;;
23470;SDS011;11908;50.806;4.424;2024-01-10T13:31:11;21.13;;;10.15;;
23470;SDS011;11908;50.806;4.424;2024-01-10T13:33:37;20.05;;;10.35;;
23470;SDS011;11908;50.806;4.424;2024-01-10T13:36:03;18.25;;;9.45;;
23470;SDS011;11908;50.806;4.424;2024-01-10T13:38:29;18.67;;;9.70;;
23470;SDS011;11908;50.806;4.424;2024-01-10T13:40:56;20.40;;;10.32;;
23470;SDS011;11908;50.806;4.424;2024-01-10T13:43:22;21.65;;;9.52;;
23470;SDS011;11908;50.806;4.424;2024-01-10T13:45:47;21.40;;;9.77;;
23470;SDS011;11908;50.806;4.424;2024-01-10T13:48:13;22.38;;;9.82;;
23470;SDS011;11908;50.806;4.424;2024-01-10T13:50:38;19.00;;;10.25;;
23470;SDS011;11908;50.806;4.424;2024-01-10T13:53:04;17.25;;;10.00;;
23470;SDS011;11908;50.806;4.424;2024-01-10T13:55:30;24.67;;;10.73;;
23470;SDS011;11908;50.806;4.424;2024-01-10T13:57:56;18.38;;;10.63;;
23470;SDS011;11908;50.806;4.424;2024-01-10T14:00:22;24.50;;;10.90;;
23470;SDS011;11908;50.806;4.424;2024-01-10T14:02:48;16.95;;;9.52;;
23470;SDS011;11908;50.806;4.424;2024-01-10T14:05:14;18.13;;;9.95;;
23470;SDS011;11908;50.806;4.424;2024-01-10T14:07:40;16.52;;;10.07;;
23470;SDS011;11908;50.806;4.424;2024-01-10T14:10:09;19.35;;;9.73;;
23470;SDS011;11908;50.806;4.424;2024-01-10T14:12:36;28.42;;;11.48;;
23470;SDS011;11908;50.806;4.424;2024-01-10T14:15:02;18.60;;;10.27;;
23470;SDS011;11908;50.806;4.424;2024-01-10T14:17:28;18.63;;;10.65;;
23470;SDS011;11908;50.806;4.424;2024-01-10T14:19:54;23.65;;;11.48;;
23470;SDS011;11908;50.806;4.424;2024-01-10T14:22:20;19.27;;;10.40;;
23470;SDS011;11908;50.806;4.424;2024-01-10T14:24:48;20.27;;;10.98;;
23470;SDS011;11908;50.806;4.424;2024-01-10T14:27:14;20.33;;;10.45;;
23470;SDS011;11908;50.806;4.424;2024-01-10T14:29:40;21.40;;;10.13;;
23470;SDS011;11908;50.806;4.424;2024-01-10T14:32:05;24.73;;;10.98;;
23470;SDS011;11908;50.806;4.424;2024-01-10T14:34:31;20.40;;;11.25;;
23470;SDS011;11908;50.806;4.424;2024-01-10T14:36:57;21.70;;;10.93;;
23470;SDS011;11908;50.806;4.424;2024-01-10T14:39:22;21.65;;;11.15;;
23470;SDS011;11908;50.806;4.424;2024-01-10T14:41:51;22.10;;;10.32;;
23470;SDS011;11908;50.806;4.424;2024-01-10T14:44:17;20.48;;;10.40;;
23470;SDS011;11908;50.806;4.424;2024-01-10T14:46:42;22.10;;;11.20;;